Pernille — 5BNZ2 — position and weather

sailwx.info

Track history (hours):
 
Tides and Currents Weather Stations Pressure Air Temp Water Temp Dewpoint Dewpoint Depression Visibility Wind Speed Wind Dir Waves Ship Positions

Pernille

Last reported at 2014-Oct-28 06:09 UTC. Time now 2014-Oct-31 05:36 UTC.
Position N 56°39' E 019°26'.

Length 82 m; draft 3.2 m.

Type: Cargo ship. MMSI: 212662000.

Date/timePositionNaut miles runAvg speedWind from/ knotsBaromVisibWave heightAir tempDewpointWater temp
2014-Oct-28 06:09N 56°39' E 019°26'3312.0
2014-Oct-28 03:25N 56°07' E 019°19'1111.9
2014-Oct-28 02:28N 55°56' E 019°16'1111.8
2014-Oct-28 01:30N 55°44' E 019°13'1211.8
2014-Oct-28 00:27N 55°32' E 019°10'2712.0
2014-Oct-27 22:12N 55°05' E 019°04'812.0
2014-Oct-27 21:33N 54°58' E 019°02'1212.0
2014-Oct-27 20:33N 54°46' E 018°59'1212.0
2014-Oct-27 19:33N 54°34' E 018°52'1111.2
2014-Oct-27 18:33N 54°31' E 018°34'1 0.8
2014-Oct-27 17:33N 54°32' E 018°33'0 0.0
2014-Oct-27 16:33N 54°32' E 018°33'0 0.0
2014-Oct-27 15:33N 54°32' E 018°33'0 0.0
2014-Oct-27 14:33N 54°32' E 018°33'0 0.0
2014-Oct-27 13:33N 54°32' E 018°33'0 0.0
2014-Oct-27 12:33N 54°32' E 018°33'0 0.0
2014-Oct-27 11:33N 54°32' E 018°33'0 0.0
2014-Oct-27 10:33N 54°32' E 018°33'0 0.0
2014-Oct-27 09:33N 54°32' E 018°33'0 0.0
2014-Oct-27 08:33N 54°32' E 018°33'0 0.0
2014-Oct-27 07:33N 54°32' E 018°33'0 0.0
2014-Oct-27 06:33N 54°32' E 018°33'0 0.0
2014-Oct-27 05:33N 54°32' E 018°33'0 0.0
2014-Oct-27 04:33N 54°32' E 018°33'0 0.0
2014-Oct-27 03:33N 54°32' E 018°33'0 0.0
2014-Oct-27 02:33N 54°32' E 018°33'0 0.2
2014-Oct-27 01:33N 54°32' E 018°34'9 8.6
2014-Oct-27 00:33N 54°33' E 018°48'10 9.8
2014-Oct-26 23:33N 54°41' E 018°59'1010.3
2014-Oct-26 22:33N 54°42' E 019°16'1210.1
2014-Oct-26 21:23N 54°42' E 019°37'8 0.2
2014-Oct-25 11:15N 54°39' E 019°49'0 0.0
2014-Oct-25 08:33N 54°39' E 019°49'0 0.1
2014-Oct-25 07:33N 54°39' E 019°49'8 7.9
2014-Oct-25 06:32N 54°44' E 019°38'1111.2
2014-Oct-25 05:34N 54°47' E 019°20'1111.0
2014-Oct-25 04:34N 54°51' E 019°02'1111.1
2014-Oct-25 03:33N 54°55' E 018°44'1111.2
2014-Oct-25 02:33N 54°58' E 018°25'1111.3
2014-Oct-25 01:33N 55°00' E 018°06'1311.2
2014-Oct-25 00:26N 55°03' E 017°44'8011.1
2014-Oct-24 17:14N 55°20' E 015°28'811.2
2014-Oct-24 16:33N 55°22' E 015°15'1111.3
2014-Oct-24 15:33N 55°23' E 014°55'1110.9
2014-Oct-24 14:33N 55°21' E 014°36'1211.8
2014-Oct-24 13:33N 55°12' E 014°23'1010.0
2014-Oct-24 12:33N 55°10' E 014°06'3911.2
2014-Oct-24 09:04N 55°15' E 012°58'711.0
2014-Oct-24 08:28N 55°16' E 012°47'8 8.7
2014-Oct-24 07:33N 55°23' E 012°39'1010.5
2014-Oct-24 06:33N 55°33' E 012°42'10 9.7
2014-Oct-24 05:33N 55°43' E 012°41'1110.6
2014-Oct-24 04:33N 55°53' E 012°39'10 9.9
2014-Oct-24 03:33N 56°03' E 012°38'9 9.3
2014-Oct-24 02:33N 56°09' E 012°25'1111.2
2014-Oct-24 01:33N 56°11' E 012°05'117 2.5
2014-Oct-22 02:33N 54°30' E 010°20'1010.1
2014-Oct-22 01:33N 54°22' E 010°09'3 2.7
2014-Oct-22 00:33N 54°22' E 010°04'8 7.8
2014-Oct-21 23:33N 54°22' E 009°51'18 7.9
2014-Oct-21 21:15N 54°10' E 009°27'14 8.0
2014-Oct-21 19:33N 53°58' E 009°16'6 6.5
2014-Oct-21 18:33N 53°54' E 009°09'2 2.1
2014-Oct-21 17:33N 53°53' E 009°12'1212.0
2014-Oct-21 16:33N 53°44' E 009°26'1212.1
2014-Oct-21 15:33N 53°35' E 009°39'1111.1
2014-Oct-21 14:34N 53°31' E 009°56'0 0.3
2014-Oct-21 13:30N 53°31' E 009°57'0 0.0
2014-Oct-21 12:30N 53°31' E 009°57'0 0.0
2014-Oct-21 11:30N 53°31' E 009°57'0 0.0
2014-Oct-21 10:30N 53°31' E 009°57'0 0.0
2014-Oct-21 09:33N 53°31' E 009°57'0 0.0
2014-Oct-21 08:33N 53°31' E 009°57'0 0.0
2014-Oct-21 07:33N 53°31' E 009°57'0 0.0
2014-Oct-21 06:30N 53°31' E 009°57'0 0.0
2014-Oct-21 05:29N 53°31' E 009°57'0 0.0
2014-Oct-21 04:32N 53°31' E 009°57'1 1.1
2014-Oct-21 03:33N 53°30' E 009°58'0 0.0
2014-Oct-21 02:33N 53°30' E 009°58'0 0.0
2014-Oct-21 01:33N 53°30' E 009°58'0 0.0
2014-Oct-21 00:33N 53°30' E 009°58'0 0.0
2014-Oct-20 23:33N 53°30' E 009°58'0 0.0
2014-Oct-20 22:33N 53°30' E 009°58'0 0.0
2014-Oct-20 21:33N 53°30' E 009°58'0 0.0
2014-Oct-20 20:33N 53°30' E 009°58'0 0.0
2014-Oct-20 19:33N 53°30' E 009°58'0 0.0
2014-Oct-20 18:33N 53°30' E 009°58'0 0.0
2014-Oct-20 17:33N 53°30' E 009°58'0 0.0
2014-Oct-20 16:33N 53°30' E 009°58'0 0.0
2014-Oct-20 15:33N 53°30' E 009°58'0 0.0
2014-Oct-20 14:33N 53°30' E 009°58'0 0.0
2014-Oct-20 13:33N 53°30' E 009°58'0 0.0
2014-Oct-20 12:33N 53°30' E 009°58'0 0.0
2014-Oct-20 11:33N 53°30' E 009°58'0 0.0
2014-Oct-20 10:33N 53°30' E 009°58'0 0.0
2014-Oct-20 09:33N 53°30' E 009°58'0 0.0
2014-Oct-20 08:33N 53°30' E 009°58'0 0.0
2014-Oct-20 07:30N 53°30' E 009°58'0 0.0
2014-Oct-20 06:33N 53°30' E 009°58'0 0.0
2014-Oct-20 05:33N 53°30' E 009°58'0 0.0
2014-Oct-20 04:33N 53°30' E 009°58'0 0.0
2014-Oct-20 03:33N 53°30' E 009°58'0 0.0
2014-Oct-20 02:33N 53°30' E 009°58'0 0.0
2014-Oct-20 01:33N 53°30' E 009°58'0 0.0
2014-Oct-20 00:33N 53°30' E 009°58'0 0.0
2014-Oct-19 23:33N 53°30' E 009°58'0 0.0
2014-Oct-19 22:33N 53°30' E 009°58'0 0.0
2014-Oct-19 21:33N 53°30' E 009°58'0 0.0
2014-Oct-19 20:33N 53°30' E 009°58'0 0.0
2014-Oct-19 19:33N 53°30' E 009°58'0 0.0
2014-Oct-19 18:33N 53°30' E 009°58'0 0.0
2014-Oct-19 17:33N 53°30' E 009°58'0 0.0
2014-Oct-19 16:33N 53°30' E 009°58'0 0.0
2014-Oct-19 15:33N 53°30' E 009°58'0 0.0
2014-Oct-19 14:33N 53°30' E 009°58'0 0.0
2014-Oct-19 13:33N 53°30' E 009°58'0 0.0
2014-Oct-19 12:27N 53°30' E 009°58'0 0.0
2014-Oct-19 11:33N 53°30' E 009°58'0 0.0
2014-Oct-19 10:33N 53°30' E 009°58'0 0.0
2014-Oct-19 09:33N 53°30' E 009°58'0 0.0
2014-Oct-19 08:33N 53°30' E 009°58'2 2.1
2014-Oct-19 07:34N 53°32' E 009°56'1211.9
2014-Oct-19 06:33N 53°35' E 009°37'1110.8
2014-Oct-19 05:31N 53°44' E 009°26'1010.1
2014-Oct-19 04:33N 53°52' E 009°16'4 4.5
2014-Oct-19 03:33N 53°54' E 009°09'22 6.6
2014-Oct-19 00:17N 54°11' E 009°30'6 7.6
2014-Oct-18 23:32N 54°15' E 009°37'3 2.8
2014-Oct-18 22:30N 54°18' E 009°40'7 7.6
2014-Oct-18 21:33N 54°22' E 009°50'8 7.8
2014-Oct-18 20:33N 54°22' E 010°03'3 2.9
2014-Oct-18 19:33N 54°22' E 010°08'1 0.9
2014-Oct-18 18:33N 54°22' E 010°10'6 6.3
2014-Oct-18 17:33N 54°28' E 010°15'1510.4
2014-Oct-18 16:09N 54°34' E 010°37'2810.7
2014-Oct-18 13:30N 54°32' E 011°26'1010.6
2014-Oct-18 12:32N 54°29' E 011°42'1010.7
2014-Oct-18 11:33N 54°27' E 012°00'  
Track history (hours):
 
Tides and Currents Weather Stations Pressure Air Temp Water Temp Dewpoint Dewpoint Depression Visibility Wind Speed Wind Dir Waves Ship Positions

Pernille

Last reported at 2014-Oct-28 06:09 UTC. Time now 2014-Oct-31 05:36 UTC.
Position N 56°39' E 019°26'.

Length 82 m; draft 3.2 m.

Type: Cargo ship. MMSI: 212662000.

Date/timePositionNaut miles runAvg speedWind from/ knotsBaromVisibWave heightAir tempDewpointWater temp
2014-Oct-28 06:09N 56°39' E 019°26'3312.0
2014-Oct-28 03:25N 56°07' E 019°19'1111.9
2014-Oct-28 02:28N 55°56' E 019°16'1111.8
2014-Oct-28 01:30N 55°44' E 019°13'1211.8
2014-Oct-28 00:27N 55°32' E 019°10'2712.0
2014-Oct-27 22:12N 55°05' E 019°04'812.0
2014-Oct-27 21:33N 54°58' E 019°02'1212.0
2014-Oct-27 20:33N 54°46' E 018°59'1212.0
2014-Oct-27 19:33N 54°34' E 018°52'1111.2
2014-Oct-27 18:33N 54°31' E 018°34'1 0.8
2014-Oct-27 17:33N 54°32' E 018°33'0 0.0
2014-Oct-27 16:33N 54°32' E 018°33'0 0.0
2014-Oct-27 15:33N 54°32' E 018°33'0 0.0
2014-Oct-27 14:33N 54°32' E 018°33'0 0.0
2014-Oct-27 13:33N 54°32' E 018°33'0 0.0
2014-Oct-27 12:33N 54°32' E 018°33'0 0.0
2014-Oct-27 11:33N 54°32' E 018°33'0 0.0
2014-Oct-27 10:33N 54°32' E 018°33'0 0.0
2014-Oct-27 09:33N 54°32' E 018°33'0 0.0
2014-Oct-27 08:33N 54°32' E 018°33'0 0.0
2014-Oct-27 07:33N 54°32' E 018°33'0 0.0
2014-Oct-27 06:33N 54°32' E 018°33'0 0.0
2014-Oct-27 05:33N 54°32' E 018°33'0 0.0
2014-Oct-27 04:33N 54°32' E 018°33'0 0.0
2014-Oct-27 03:33N 54°32' E 018°33'0 0.0
2014-Oct-27 02:33N 54°32' E 018°33'0 0.2
2014-Oct-27 01:33N 54°32' E 018°34'9 8.6
2014-Oct-27 00:33N 54°33' E 018°48'10 9.8
2014-Oct-26 23:33N 54°41' E 018°59'1010.3
2014-Oct-26 22:33N 54°42' E 019°16'1210.1
2014-Oct-26 21:23N 54°42' E 019°37'8 0.2
2014-Oct-25 11:15N 54°39' E 019°49'0 0.0
2014-Oct-25 08:33N 54°39' E 019°49'0 0.1
2014-Oct-25 07:33N 54°39' E 019°49'8 7.9
2014-Oct-25 06:32N 54°44' E 019°38'1111.2
2014-Oct-25 05:34N 54°47' E 019°20'1111.0
2014-Oct-25 04:34N 54°51' E 019°02'1111.1
2014-Oct-25 03:33N 54°55' E 018°44'1111.2
2014-Oct-25 02:33N 54°58' E 018°25'1111.3
2014-Oct-25 01:33N 55°00' E 018°06'1311.2
2014-Oct-25 00:26N 55°03' E 017°44'8011.1
2014-Oct-24 17:14N 55°20' E 015°28'811.2
2014-Oct-24 16:33N 55°22' E 015°15'1111.3
2014-Oct-24 15:33N 55°23' E 014°55'1110.9
2014-Oct-24 14:33N 55°21' E 014°36'1211.8
2014-Oct-24 13:33N 55°12' E 014°23'1010.0
2014-Oct-24 12:33N 55°10' E 014°06'3911.2
2014-Oct-24 09:04N 55°15' E 012°58'711.0
2014-Oct-24 08:28N 55°16' E 012°47'8 8.7
2014-Oct-24 07:33N 55°23' E 012°39'1010.5
2014-Oct-24 06:33N 55°33' E 012°42'10 9.7
2014-Oct-24 05:33N 55°43' E 012°41'1110.6
2014-Oct-24 04:33N 55°53' E 012°39'10 9.9
2014-Oct-24 03:33N 56°03' E 012°38'9 9.3
2014-Oct-24 02:33N 56°09' E 012°25'1111.2
2014-Oct-24 01:33N 56°11' E 012°05'117 2.5
2014-Oct-22 02:33N 54°30' E 010°20'1010.1
2014-Oct-22 01:33N 54°22' E 010°09'3 2.7
2014-Oct-22 00:33N 54°22' E 010°04'8 7.8
2014-Oct-21 23:33N 54°22' E 009°51'18 7.9
2014-Oct-21 21:15N 54°10' E 009°27'14 8.0
2014-Oct-21 19:33N 53°58' E 009°16'6 6.5
2014-Oct-21 18:33N 53°54' E 009°09'2 2.1
2014-Oct-21 17:33N 53°53' E 009°12'1212.0
2014-Oct-21 16:33N 53°44' E 009°26'1212.1
2014-Oct-21 15:33N 53°35' E 009°39'1111.1
2014-Oct-21 14:34N 53°31' E 009°56'0 0.3
2014-Oct-21 13:30N 53°31' E 009°57'0 0.0
2014-Oct-21 12:30N 53°31' E 009°57'0 0.0
2014-Oct-21 11:30N 53°31' E 009°57'0 0.0
2014-Oct-21 10:30N 53°31' E 009°57'0 0.0
2014-Oct-21 09:33N 53°31' E 009°57'0 0.0
2014-Oct-21 08:33N 53°31' E 009°57'0 0.0
2014-Oct-21 07:33N 53°31' E 009°57'0 0.0
2014-Oct-21 06:30N 53°31' E 009°57'0 0.0
2014-Oct-21 05:29N 53°31' E 009°57'0 0.0
2014-Oct-21 04:32N 53°31' E 009°57'1 1.1
2014-Oct-21 03:33N 53°30' E 009°58'0 0.0
2014-Oct-21 02:33N 53°30' E 009°58'0 0.0
2014-Oct-21 01:33N 53°30' E 009°58'0 0.0
2014-Oct-21 00:33N 53°30' E 009°58'0 0.0
2014-Oct-20 23:33N 53°30' E 009°58'0 0.0
2014-Oct-20 22:33N 53°30' E 009°58'0 0.0
2014-Oct-20 21:33N 53°30' E 009°58'0 0.0
2014-Oct-20 20:33N 53°30' E 009°58'0 0.0
2014-Oct-20 19:33N 53°30' E 009°58'0 0.0
2014-Oct-20 18:33N 53°30' E 009°58'0 0.0
2014-Oct-20 17:33N 53°30' E 009°58'0 0.0
2014-Oct-20 16:33N 53°30' E 009°58'0 0.0
2014-Oct-20 15:33N 53°30' E 009°58'0 0.0
2014-Oct-20 14:33N 53°30' E 009°58'0 0.0
2014-Oct-20 13:33N 53°30' E 009°58'0 0.0
2014-Oct-20 12:33N 53°30' E 009°58'0 0.0
2014-Oct-20 11:33N 53°30' E 009°58'0 0.0
2014-Oct-20 10:33N 53°30' E 009°58'0 0.0
2014-Oct-20 09:33N 53°30' E 009°58'0 0.0
2014-Oct-20 08:33N 53°30' E 009°58'0 0.0
2014-Oct-20 07:30N 53°30' E 009°58'0 0.0
2014-Oct-20 06:33N 53°30' E 009°58'0 0.0
2014-Oct-20 05:33N 53°30' E 009°58'0 0.0
2014-Oct-20 04:33N 53°30' E 009°58'0 0.0
2014-Oct-20 03:33N 53°30' E 009°58'0 0.0
2014-Oct-20 02:33N 53°30' E 009°58'0 0.0
2014-Oct-20 01:33N 53°30' E 009°58'0 0.0
2014-Oct-20 00:33N 53°30' E 009°58'0 0.0
2014-Oct-19 23:33N 53°30' E 009°58'0 0.0
2014-Oct-19 22:33N 53°30' E 009°58'0 0.0
2014-Oct-19 21:33N 53°30' E 009°58'0 0.0
2014-Oct-19 20:33N 53°30' E 009°58'0 0.0
2014-Oct-19 19:33N 53°30' E 009°58'0 0.0
2014-Oct-19 18:33N 53°30' E 009°58'0 0.0
2014-Oct-19 17:33N 53°30' E 009°58'0 0.0
2014-Oct-19 16:33N 53°30' E 009°58'0 0.0
2014-Oct-19 15:33N 53°30' E 009°58'0 0.0
2014-Oct-19 14:33N 53°30' E 009°58'0 0.0
2014-Oct-19 13:33N 53°30' E 009°58'0 0.0
2014-Oct-19 12:27N 53°30' E 009°58'0 0.0
2014-Oct-19 11:33N 53°30' E 009°58'0 0.0
2014-Oct-19 10:33N 53°30' E 009°58'0 0.0
2014-Oct-19 09:33N 53°30' E 009°58'0 0.0
2014-Oct-19 08:33N 53°30' E 009°58'2 2.1
2014-Oct-19 07:34N 53°32' E 009°56'1211.9
2014-Oct-19 06:33N 53°35' E 009°37'1110.8
2014-Oct-19 05:31N 53°44' E 009°26'1010.1
2014-Oct-19 04:33N 53°52' E 009°16'4 4.5
2014-Oct-19 03:33N 53°54' E 009°09'22 6.6
2014-Oct-19 00:17N 54°11' E 009°30'6 7.6
2014-Oct-18 23:32N 54°15' E 009°37'3 2.8
2014-Oct-18 22:30N 54°18' E 009°40'7 7.6
2014-Oct-18 21:33N 54°22' E 009°50'8 7.8
2014-Oct-18 20:33N 54°22' E 010°03'3 2.9
2014-Oct-18 19:33N 54°22' E 010°08'1 0.9
2014-Oct-18 18:33N 54°22' E 010°10'6 6.3
2014-Oct-18 17:33N 54°28' E 010°15'1510.4
2014-Oct-18 16:09N 54°34' E 010°37'2810.7
2014-Oct-18 13:30N 54°32' E 011°26'1010.6
2014-Oct-18 12:32N 54°29' E 011°42'1010.7
2014-Oct-18 11:33N 54°27' E 012°00'  

Dump ship's entire track history